createdAt,value
2018-08-17T00:01:13.177Z,20.60
2018-08-17T00:06:16.516Z,20.40
2018-08-17T00:11:20.559Z,20.30
2018-08-17T00:16:23.956Z,20.30
2018-08-17T00:21:27.682Z,20.20
2018-08-17T00:26:31.814Z,20.10
2018-08-17T00:31:38.402Z,20.00
2018-08-17T00:36:45.195Z,20.00
2018-08-17T00:41:50.705Z,20.00
2018-08-17T00:46:54.041Z,19.70
2018-08-17T00:51:57.393Z,19.50
2018-08-17T00:57:00.724Z,19.50
2018-08-17T01:02:04.881Z,19.50
2018-08-17T01:07:11.368Z,19.40
2018-08-17T01:12:14.628Z,19.40
2018-08-17T01:17:18.041Z,19.40
2018-08-17T01:22:21.517Z,19.50
2018-08-17T01:27:24.839Z,19.50
2018-08-17T01:32:28.234Z,19.40
2018-08-17T01:37:31.521Z,19.50
2018-08-17T01:42:34.877Z,19.50
2018-08-17T01:47:38.537Z,19.30
2018-08-17T01:52:42.110Z,19.30
2018-08-17T01:57:45.417Z,19.00
2018-08-17T02:02:49.750Z,18.90
2018-08-17T02:13:25.588Z,18.90
2018-08-17T02:18:28.945Z,18.80
2018-08-17T02:23:32.260Z,18.70
2018-08-17T02:28:35.623Z,18.70
2018-08-17T02:33:38.928Z,18.60
2018-08-17T02:38:42.391Z,18.50
2018-08-17T02:43:45.805Z,18.40
2018-08-17T02:48:49.135Z,18.40
2018-08-17T02:53:52.526Z,18.30
2018-08-17T02:58:55.820Z,18.30
2018-08-17T03:03:59.215Z,18.20
2018-08-17T03:09:02.666Z,18.20
2018-08-17T03:14:06.710Z,18.00
2018-08-17T03:19:10.151Z,18.00
2018-08-17T03:24:16.949Z,18.00
2018-08-17T03:29:22.142Z,18.00
2018-08-17T03:34:30.241Z,18.00
2018-08-17T03:39:33.537Z,18.00
2018-08-17T03:44:36.888Z,17.90
2018-08-17T03:49:41.177Z,18.00
2018-08-17T03:54:44.434Z,17.90
2018-08-17T03:59:47.933Z,18.00
2018-08-17T04:04:51.283Z,18.00
2018-08-17T04:09:54.620Z,18.00
2018-08-17T04:14:58.068Z,18.00
2018-08-17T04:20:02.183Z,17.90
2018-08-17T04:25:06.817Z,18.00
2018-08-17T04:30:26.617Z,18.00
2018-08-17T04:35:29.977Z,18.10
2018-08-17T04:40:33.251Z,18.10
2018-08-17T04:45:36.591Z,18.30
2018-08-17T04:50:40.092Z,18.30
2018-08-17T04:55:44.004Z,18.50
2018-08-17T05:00:47.863Z,18.50
2018-08-17T05:05:52.250Z,18.60
2018-08-17T05:10:55.697Z,18.70
2018-08-17T05:15:59.175Z,18.80
2018-08-17T05:21:02.500Z,19.00
2018-08-17T05:26:05.840Z,19.00
2018-08-17T05:31:09.151Z,19.00
2018-08-17T05:36:12.525Z,19.00
2018-08-17T05:41:15.852Z,19.00
2018-08-17T05:46:19.317Z,19.10
2018-08-17T05:51:22.735Z,19.20
2018-08-17T05:56:26.114Z,19.20
2018-08-17T06:01:29.483Z,19.30
2018-08-17T06:06:32.811Z,19.50
2018-08-17T06:11:36.807Z,19.70
2018-08-17T06:16:40.128Z,19.80
2018-08-17T06:21:43.556Z,20.00
2018-08-17T06:26:47.695Z,20.30
2018-08-17T06:31:51.433Z,20.50
2018-08-17T06:36:54.656Z,20.90
2018-08-17T06:41:57.927Z,21.10
2018-08-17T06:47:01.258Z,21.20
2018-08-17T06:52:05.012Z,21.50
2018-08-17T06:57:08.404Z,21.90
2018-08-17T07:02:11.694Z,22.20
2018-08-17T07:07:15.037Z,22.50
2018-08-17T07:12:18.295Z,22.70
2018-08-17T07:17:21.620Z,22.90
2018-08-17T07:22:25.688Z,23.30
2018-08-17T07:27:29.715Z,23.40
2018-08-17T07:32:33.504Z,23.70
2018-08-17T07:37:36.859Z,24.00
2018-08-17T07:42:40.266Z,24.20
2018-08-17T07:47:43.658Z,24.50
2018-08-17T07:52:47.174Z,24.90
2018-08-17T07:57:50.552Z,25.20
2018-08-17T08:02:54.788Z,25.40
2018-08-17T08:07:58.182Z,25.80
2018-08-17T08:13:01.548Z,26.00
2018-08-17T08:18:04.965Z,26.20
2018-08-17T08:23:23.228Z,26.50
2018-08-17T08:28:31.202Z,26.80
2018-08-17T08:33:36.499Z,27.10
2018-08-17T08:38:39.931Z,27.60
2018-08-17T08:43:43.202Z,27.40
2018-08-17T08:48:46.452Z,27.30
2018-08-17T08:53:49.765Z,27.50
2018-08-17T08:58:53.223Z,27.90
2018-08-17T09:03:56.784Z,28.10
2018-08-17T09:09:00.125Z,27.90
2018-08-17T09:14:03.580Z,28.20
2018-08-17T09:19:07.020Z,28.80
2018-08-17T09:24:10.369Z,28.80
2018-08-17T09:29:13.793Z,29.10
2018-08-17T09:34:17.119Z,29.00
2018-08-17T09:39:20.733Z,29.40
2018-08-17T09:44:24.083Z,29.50
2018-08-17T09:49:27.419Z,29.60
2018-08-17T09:54:30.752Z,29.90
2018-08-17T09:59:34.110Z,30.00
2018-08-17T10:04:45.864Z,30.10
2018-08-17T10:09:55.825Z,30.10
2018-08-17T10:14:59.079Z,30.50
2018-08-17T10:20:02.407Z,30.30
2018-08-17T10:25:11.127Z,30.20
2018-08-17T10:30:14.609Z,30.60
2018-08-17T10:35:28.705Z,30.50
2018-08-17T10:40:32.154Z,30.80
2018-08-17T10:45:37.682Z,31.10
2018-08-17T10:50:41.078Z,31.70
2018-08-17T10:55:47.955Z,31.90
2018-08-17T11:00:51.300Z,32.10
2018-08-17T11:05:54.699Z,32.60
2018-08-17T11:10:58.690Z,32.70
2018-08-17T11:16:02.059Z,32.30
2018-08-17T11:21:05.467Z,32.60
2018-08-17T11:26:08.772Z,32.70
2018-08-17T11:31:12.064Z,33.30
2018-08-17T11:36:15.430Z,33.90
2018-08-17T11:41:19.097Z,33.80
2018-08-17T11:46:23.332Z,34.10
2018-08-17T11:51:27.667Z,34.70
2018-08-17T11:56:33.353Z,34.70
2018-08-17T12:01:36.770Z,34.70
2018-08-17T12:06:40.415Z,34.50
2018-08-17T12:11:43.815Z,34.90
2018-08-17T12:16:47.126Z,35.30
2018-08-17T12:21:50.713Z,35.40
2018-08-17T12:43:47.708Z,36.10
2018-08-17T12:54:27.171Z,36.10
2018-08-17T12:59:32.035Z,36.10
2018-08-17T13:04:36.175Z,36.40
2018-08-17T13:15:16.183Z,35.70
2018-08-17T13:20:21.569Z,35.80
2018-08-17T13:25:25.888Z,35.80
2018-08-17T13:30:29.263Z,35.80
2018-08-17T13:35:32.533Z,36.30
2018-08-17T13:40:35.992Z,35.50
2018-08-17T13:45:39.358Z,35.10
2018-08-17T13:50:42.794Z,35.20
2018-08-17T13:55:46.405Z,35.80
2018-08-17T14:00:49.864Z,36.50
2018-08-17T14:05:53.375Z,36.20
2018-08-17T14:10:56.920Z,35.70
2018-08-17T14:16:00.441Z,36.10
2018-08-17T14:21:03.756Z,36.30
2018-08-17T14:31:46.029Z,36.70
2018-08-17T14:37:13.104Z,36.90
2018-08-17T14:42:19.920Z,36.80
2018-08-17T14:47:39.599Z,37.00
2018-08-17T14:57:58.922Z,36.80
2018-08-17T15:03:03.674Z,36.70
2018-08-17T15:08:09.331Z,36.10
2018-08-17T15:13:16.918Z,35.30
2018-08-17T15:18:21.697Z,34.50
2018-08-17T15:23:29.177Z,34.00
2018-08-17T15:28:36.938Z,33.40
2018-08-17T15:33:40.950Z,32.70
2018-08-17T15:38:49.485Z,32.50
2018-08-17T15:43:55.410Z,32.20
2018-08-17T15:49:03.587Z,32.10
2018-08-17T15:54:12.952Z,32.40
2018-08-17T16:06:04.262Z,32.70
2018-08-17T16:11:09.454Z,32.80
2018-08-17T16:16:14.803Z,32.70
2018-08-17T16:21:22.613Z,32.70
2018-08-17T16:26:30.346Z,32.40
2018-08-17T16:31:41.798Z,32.30
2018-08-17T16:36:49.704Z,32.60
2018-08-17T16:41:53.824Z,32.90
2018-08-17T16:47:01.341Z,33.30
2018-08-17T16:52:05.660Z,33.20
2018-08-17T16:57:10.546Z,32.00
2018-08-17T17:02:15.145Z,31.70
2018-08-17T17:07:19.963Z,32.00
2018-08-17T17:12:23.811Z,31.70
2018-08-17T17:17:29.943Z,31.00
2018-08-17T17:22:33.941Z,30.40
2018-08-17T17:27:37.882Z,30.20
2018-08-17T17:32:42.483Z,29.80
2018-08-17T17:37:46.307Z,29.60
2018-08-17T17:42:50.080Z,29.20
2018-08-17T17:47:54.647Z,29.00
2018-08-17T17:52:58.710Z,28.80
2018-08-17T17:58:04.253Z,28.40
2018-08-17T18:03:08.685Z,28.00
2018-08-17T18:08:18.325Z,27.70
2018-08-17T18:13:22.162Z,27.70
2018-08-17T18:18:26.560Z,27.10
2018-08-17T18:23:31.181Z,27.00
2018-08-17T18:28:37.910Z,26.90
2018-08-17T18:33:41.598Z,26.90
2018-08-17T18:38:45.134Z,26.70
2018-08-17T18:43:51.992Z,26.20
2018-08-17T18:48:56.789Z,25.90
2018-08-17T18:54:01.136Z,25.80
2018-08-17T18:59:24.061Z,25.60
2018-08-17T19:04:28.409Z,25.60
2018-08-17T19:09:45.029Z,25.40
2018-08-17T19:14:51.033Z,25.10
2018-08-17T19:20:00.741Z,24.90
2018-08-17T19:25:06.917Z,24.90
2018-08-17T19:30:21.382Z,24.70
2018-08-17T19:35:40.290Z,24.60
2018-08-17T19:40:45.610Z,24.50
2018-08-17T19:45:51.566Z,24.50
2018-08-17T19:51:05.625Z,24.50
2018-08-17T19:56:28.365Z,24.20
2018-08-17T20:12:40.020Z,23.90
2018-08-17T20:17:50.719Z,23.60
2018-08-17T20:23:10.002Z,23.70
2018-08-17T20:28:13.788Z,23.70
2018-08-17T20:38:18.020Z,23.50
2018-08-17T20:43:21.424Z,23.40
2018-08-17T20:48:24.787Z,23.30
2018-08-17T20:53:28.125Z,23.30
2018-08-17T20:58:31.452Z,23.30
2018-08-17T21:03:34.892Z,23.30
2018-08-17T21:08:38.237Z,23.20
2018-08-17T21:13:41.637Z,23.10
2018-08-17T21:18:45.067Z,23.00
2018-08-17T21:23:52.270Z,22.90
2018-08-17T21:28:55.719Z,22.90
2018-08-17T21:33:59.134Z,23.00
2018-08-17T21:39:12.793Z,22.80
2018-08-17T21:44:18.551Z,22.70
2018-08-17T21:49:24.190Z,22.70
2018-08-17T21:54:29.512Z,22.50
2018-08-17T21:59:37.998Z,22.60
2018-08-17T22:04:41.502Z,22.60
2018-08-17T22:09:44.848Z,22.50
2018-08-17T22:14:49.092Z,22.40
2018-08-17T22:19:52.596Z,22.30
2018-08-17T22:24:56.994Z,22.10
2018-08-17T22:30:00.437Z,22.00
2018-08-17T22:35:03.943Z,21.90
2018-08-17T22:40:07.979Z,21.80
2018-08-17T22:45:11.411Z,21.50
2018-08-17T22:50:14.935Z,21.50
2018-08-17T22:55:18.333Z,21.40
2018-08-17T23:00:23.678Z,21.30
2018-08-17T23:05:28.815Z,21.30
2018-08-17T23:10:32.185Z,21.10
2018-08-17T23:15:35.973Z,21.10
2018-08-17T23:20:39.358Z,21.20
2018-08-17T23:25:42.744Z,21.10
2018-08-17T23:30:46.108Z,21.20
2018-08-17T23:35:56.179Z,21.10
2018-08-17T23:40:59.571Z,20.90
2018-08-17T23:46:02.950Z,20.90
2018-08-17T23:51:06.356Z,20.90
2018-08-17T23:56:09.991Z,20.90
